createdAt,value
2023-05-14T00:00:55.581Z,85.80
2023-05-14T00:03:22.517Z,86.00
2023-05-14T00:05:49.696Z,86.20
2023-05-14T00:08:16.555Z,86.20
2023-05-14T00:10:43.437Z,86.50
2023-05-14T00:13:10.692Z,86.20
2023-05-14T00:15:37.699Z,86.20
2023-05-14T00:18:04.702Z,86.50
2023-05-14T00:20:31.519Z,86.60
2023-05-14T00:22:58.364Z,86.70
2023-05-14T00:25:25.246Z,87.10
2023-05-14T00:27:52.057Z,86.90
2023-05-14T00:30:18.998Z,86.90
2023-05-14T00:32:46.015Z,86.90
2023-05-14T00:35:12.851Z,86.70
2023-05-14T00:37:39.667Z,87.50
2023-05-14T00:40:08.635Z,87.40
2023-05-14T00:42:35.661Z,87.90
2023-05-14T00:45:02.875Z,87.50
2023-05-14T00:47:29.798Z,87.80
2023-05-14T00:49:56.626Z,87.50
2023-05-14T00:52:23.532Z,87.60
2023-05-14T00:54:50.886Z,87.50
2023-05-14T00:57:19.809Z,87.50
2023-05-14T00:59:46.699Z,87.40
2023-05-14T01:02:13.557Z,87.50
2023-05-14T01:04:41.493Z,87.20
2023-05-14T01:07:21.186Z,87.00
2023-05-14T01:10:12.902Z,86.90
2023-05-14T01:12:58.254Z,87.20
2023-05-14T01:15:30.303Z,86.80
2023-05-14T01:18:03.860Z,86.80
2023-05-14T01:20:30.818Z,87.00
2023-05-14T01:22:57.658Z,87.00
2023-05-14T01:25:26.023Z,86.30
2023-05-14T01:28:06.634Z,86.50
2023-05-14T01:30:33.355Z,86.70
2023-05-14T01:33:03.582Z,87.10
2023-05-14T01:35:30.955Z,87.20
2023-05-14T01:38:01.099Z,86.50
2023-05-14T01:40:29.038Z,87.10
2023-05-14T01:42:56.808Z,86.90
2023-05-14T01:45:24.465Z,87.00
2023-05-14T01:47:51.886Z,86.90
2023-05-14T01:50:19.011Z,86.60
2023-05-14T01:52:46.025Z,86.80
2023-05-14T01:55:12.958Z,87.00
2023-05-14T01:57:39.777Z,86.70
2023-05-14T02:00:07.762Z,87.20
2023-05-14T02:02:41.038Z,87.40
2023-05-14T02:05:10.805Z,87.80
2023-05-14T02:07:38.113Z,87.60
2023-05-14T02:10:05.493Z,87.80
2023-05-14T02:12:32.277Z,88.30
2023-05-14T02:14:59.159Z,88.40
2023-05-14T02:17:27.446Z,88.70
2023-05-14T02:19:54.542Z,88.30
2023-05-14T02:22:21.398Z,88.40
2023-05-14T02:24:49.804Z,88.10
2023-05-14T02:27:18.064Z,87.90
2023-05-14T02:29:45.033Z,87.60
2023-05-14T02:32:12.002Z,87.60
2023-05-14T02:34:39.440Z,87.70
2023-05-14T02:37:06.617Z,87.90
2023-05-14T02:39:33.480Z,88.20
2023-05-14T02:42:00.338Z,88.30
2023-05-14T02:44:27.145Z,88.40
2023-05-14T02:46:53.950Z,88.70
2023-05-14T02:49:20.989Z,89.10
2023-05-14T02:51:47.767Z,89.30
2023-05-14T02:54:16.437Z,89.50
2023-05-14T02:56:43.467Z,89.80
2023-05-14T02:59:10.483Z,89.50
2023-05-14T03:01:38.004Z,89.10
2023-05-14T03:04:05.636Z,89.90
2023-05-14T03:06:32.475Z,90.00
2023-05-14T03:08:59.395Z,90.00
2023-05-14T03:11:26.363Z,90.20
2023-05-14T03:13:53.252Z,90.10
2023-05-14T03:16:20.159Z,89.80
2023-05-14T03:18:46.991Z,89.70
2023-05-14T03:21:13.912Z,89.50
2023-05-14T03:23:40.914Z,90.10
2023-05-14T03:26:08.892Z,88.70
2023-05-14T03:28:35.739Z,88.10
2023-05-14T03:31:02.653Z,87.60
2023-05-14T03:33:31.216Z,87.60
2023-05-14T03:35:58.078Z,87.10
2023-05-14T03:38:24.895Z,86.50
2023-05-14T03:40:51.959Z,86.80
2023-05-14T03:43:18.824Z,86.80
2023-05-14T03:45:46.157Z,86.80
2023-05-14T03:48:13.081Z,87.40
2023-05-14T03:50:40.242Z,86.60
2023-05-14T03:53:07.107Z,86.10
2023-05-14T03:55:33.946Z,85.80
2023-05-14T03:58:01.054Z,85.60
2023-05-14T04:00:28.387Z,84.90
2023-05-14T04:02:55.451Z,85.40
2023-05-14T04:05:23.988Z,88.30
2023-05-14T04:07:52.556Z,88.80
2023-05-14T04:10:20.585Z,89.40
2023-05-14T04:12:47.416Z,89.80
2023-05-14T04:15:14.369Z,90.00
2023-05-14T04:17:42.714Z,91.10
2023-05-14T04:20:10.150Z,91.30
2023-05-14T04:22:36.989Z,91.40
2023-05-14T04:25:03.976Z,91.80
2023-05-14T04:27:30.814Z,91.70
2023-05-14T04:29:58.206Z,91.90
2023-05-14T04:32:25.671Z,91.80
2023-05-14T04:34:52.599Z,91.40
2023-05-14T04:37:19.416Z,91.90
2023-05-14T04:39:46.339Z,92.30
2023-05-14T04:42:13.565Z,91.90
2023-05-14T04:44:40.450Z,92.60
2023-05-14T04:47:07.646Z,92.60
2023-05-14T04:49:34.569Z,91.90
2023-05-14T04:52:02.336Z,92.60
2023-05-14T04:54:29.384Z,92.50
2023-05-14T04:56:56.325Z,92.30
2023-05-14T04:59:23.134Z,92.40
2023-05-14T05:01:50.013Z,92.20
2023-05-14T05:04:16.914Z,92.20
2023-05-14T05:06:43.802Z,92.00
2023-05-14T05:09:10.682Z,92.40
2023-05-14T05:11:38.821Z,92.30
2023-05-14T05:14:05.710Z,92.30
2023-05-14T05:16:32.827Z,91.80
2023-05-14T05:18:59.862Z,92.10
2023-05-14T05:21:26.990Z,92.30
2023-05-14T05:23:53.820Z,92.30
2023-05-14T05:26:22.251Z,92.70
2023-05-14T05:28:49.113Z,92.30
2023-05-14T05:31:18.322Z,91.60
2023-05-14T05:33:46.708Z,91.40
2023-05-14T05:36:13.523Z,91.30
2023-05-14T05:38:40.355Z,91.20
2023-05-14T05:41:07.630Z,90.80
2023-05-14T05:43:34.512Z,90.50
2023-05-14T05:46:01.703Z,90.00
2023-05-14T05:48:28.596Z,89.40
2023-05-14T05:50:55.613Z,90.00
2023-05-14T05:53:22.454Z,90.40
2023-05-14T05:55:51.632Z,87.70
2023-05-14T05:58:19.250Z,84.60
2023-05-14T06:00:47.119Z,81.40
2023-05-14T06:03:14.368Z,80.40
2023-05-14T06:05:41.334Z,79.50
2023-05-14T06:08:08.296Z,77.60
2023-05-14T06:10:36.261Z,76.60
2023-05-14T06:13:03.181Z,78.50
2023-05-14T06:15:30.026Z,76.50
2023-05-14T06:17:56.995Z,76.70
2023-05-14T06:20:24.329Z,76.60
2023-05-14T06:22:51.377Z,74.40
2023-05-14T06:25:18.525Z,74.60
2023-05-14T06:27:45.313Z,74.00
2023-05-14T06:30:12.771Z,73.60
2023-05-14T06:32:39.734Z,73.20
2023-05-14T06:35:07.159Z,74.20
2023-05-14T06:37:33.968Z,73.30
2023-05-14T06:40:01.447Z,73.10
2023-05-14T06:42:28.248Z,73.30
2023-05-14T06:44:56.020Z,73.60
2023-05-14T06:47:22.898Z,72.70
2023-05-14T06:49:49.857Z,71.60
2023-05-14T06:52:16.622Z,72.70
2023-05-14T06:54:43.488Z,72.70
2023-05-14T06:57:10.494Z,71.70
2023-05-14T06:59:37.359Z,71.50
2023-05-14T07:02:04.272Z,70.50
2023-05-14T07:04:31.215Z,71.40
2023-05-14T07:06:58.079Z,71.80
2023-05-14T07:09:24.865Z,71.50
2023-05-14T07:11:51.704Z,72.70
2023-05-14T07:14:18.817Z,72.10
2023-05-14T07:16:47.055Z,71.50
2023-05-14T07:19:14.042Z,70.10
2023-05-14T07:21:40.981Z,70.40
2023-05-14T07:24:07.956Z,69.80
2023-05-14T07:26:34.884Z,70.30
2023-05-14T07:29:01.810Z,70.20
2023-05-14T07:31:28.794Z,71.00
2023-05-14T07:33:55.926Z,71.50
2023-05-14T07:36:23.418Z,72.20
2023-05-14T07:38:50.414Z,71.60
2023-05-14T07:41:17.254Z,71.30
2023-05-14T07:43:44.133Z,72.20
2023-05-14T07:46:11.100Z,71.90
2023-05-14T07:48:38.070Z,72.20
2023-05-14T07:51:05.005Z,72.20
2023-05-14T07:53:31.882Z,72.00
2023-05-14T07:56:00.134Z,72.10
2023-05-14T07:58:28.152Z,72.90
2023-05-14T08:00:55.164Z,71.70
2023-05-14T08:03:22.160Z,70.80
2023-05-14T08:05:49.009Z,70.50
2023-05-14T08:08:16.236Z,70.70
2023-05-14T08:10:43.149Z,70.90
2023-05-14T08:13:10.054Z,70.70
2023-05-14T08:15:37.197Z,68.80
2023-05-14T08:18:04.138Z,70.00
2023-05-14T08:20:31.224Z,69.70
2023-05-14T08:22:58.250Z,67.00
2023-05-14T08:25:25.318Z,68.10
2023-05-14T08:27:53.674Z,67.90
2023-05-14T08:30:21.871Z,66.10
2023-05-14T08:32:48.888Z,67.50
2023-05-14T08:35:16.230Z,67.60
2023-05-14T08:37:43.303Z,64.30
2023-05-14T08:40:10.744Z,64.90
2023-05-14T08:42:41.515Z,65.30
2023-05-14T08:45:16.461Z,64.70
2023-05-14T08:47:50.473Z,64.30
2023-05-14T08:50:21.893Z,65.50
2023-05-14T08:52:50.242Z,64.20
2023-05-14T08:55:17.051Z,65.10
2023-05-14T08:57:43.915Z,62.50
2023-05-14T09:00:12.153Z,63.20
2023-05-14T09:02:40.922Z,63.70
2023-05-14T09:05:09.321Z,63.30
2023-05-14T09:07:36.641Z,63.90
2023-05-14T09:10:04.579Z,62.70
2023-05-14T09:12:31.558Z,63.20
2023-05-14T09:14:58.437Z,61.60
2023-05-14T09:17:27.753Z,63.00
2023-05-14T09:19:54.738Z,61.60
2023-05-14T09:22:21.745Z,62.00
2023-05-14T09:25:03.488Z,62.10
2023-05-14T09:27:31.850Z,62.40
2023-05-14T09:30:06.040Z,60.60
2023-05-14T09:32:37.245Z,61.90
2023-05-14T09:35:21.498Z,60.00
2023-05-14T09:37:51.071Z,60.80
2023-05-14T09:40:19.790Z,60.50
2023-05-14T09:42:49.056Z,63.00
2023-05-14T09:45:16.818Z,62.20
2023-05-14T09:47:45.167Z,63.30
2023-05-14T09:50:12.655Z,62.50
2023-05-14T09:52:39.930Z,61.70
2023-05-14T09:55:08.032Z,61.70
2023-05-14T09:57:35.457Z,61.40
2023-05-14T10:00:02.359Z,63.00
2023-05-14T10:02:37.978Z,63.20
2023-05-14T10:05:06.893Z,61.10
2023-05-14T10:07:47.871Z,62.90
2023-05-14T10:10:18.579Z,62.50
2023-05-14T10:12:55.169Z,60.80
2023-05-14T10:15:49.891Z,61.00
2023-05-14T10:18:19.697Z,61.50
2023-05-14T10:21:00.351Z,61.70
2023-05-14T10:23:27.625Z,59.50
2023-05-14T10:25:54.830Z,60.30
2023-05-14T10:28:21.854Z,61.30
2023-05-14T10:30:50.022Z,60.80
2023-05-14T10:33:18.557Z,61.80
2023-05-14T10:35:59.838Z,61.00
2023-05-14T10:38:35.113Z,63.00
2023-05-14T10:41:12.317Z,62.10
2023-05-14T10:43:40.470Z,61.80
2023-05-14T10:46:08.864Z,63.50
2023-05-14T10:48:37.766Z,61.30
2023-05-14T10:51:08.304Z,60.50
2023-05-14T10:53:38.563Z,60.30
2023-05-14T10:56:13.436Z,60.70
2023-05-14T10:58:43.066Z,61.70
2023-05-14T11:01:11.979Z,61.80
2023-05-14T11:03:43.586Z,61.90
2023-05-14T11:06:11.811Z,62.10
2023-05-14T11:08:39.013Z,62.10
2023-05-14T11:11:06.899Z,63.60
2023-05-14T11:13:34.701Z,62.70
2023-05-14T11:16:12.003Z,62.80
2023-05-14T11:18:48.410Z,64.90
2023-05-14T11:21:17.500Z,62.90
2023-05-14T11:23:46.891Z,61.90
2023-05-14T11:26:13.787Z,62.60
2023-05-14T11:28:41.005Z,63.80
2023-05-14T11:31:08.072Z,62.70
2023-05-14T11:33:36.144Z,62.20
2023-05-14T11:36:03.544Z,63.20
2023-05-14T11:38:30.433Z,61.60
2023-05-14T11:40:58.924Z,62.00
2023-05-14T11:43:29.131Z,62.50
2023-05-14T11:45:56.284Z,60.80
2023-05-14T11:48:24.007Z,61.80
2023-05-14T11:50:52.538Z,59.40
2023-05-14T11:53:20.836Z,61.20
2023-05-14T11:55:48.046Z,61.30
2023-05-14T11:58:15.866Z,60.70
2023-05-14T12:00:45.576Z,61.80
2023-05-14T12:03:12.767Z,60.20
2023-05-14T12:05:40.201Z,60.00
2023-05-14T12:08:37.644Z,60.10
2023-05-14T12:11:04.539Z,63.60
2023-05-14T12:13:32.383Z,62.40
2023-05-14T12:16:05.486Z,62.30
2023-05-14T12:18:32.665Z,60.40
2023-05-14T12:21:04.308Z,60.20
2023-05-14T12:23:32.386Z,62.00
2023-05-14T12:26:07.464Z,59.90
2023-05-14T12:28:37.972Z,59.80
2023-05-14T12:31:05.740Z,61.50
2023-05-14T12:33:32.624Z,60.50
2023-05-14T12:36:07.382Z,61.20
2023-05-14T12:38:41.628Z,61.70
2023-05-14T12:41:08.440Z,60.50
2023-05-14T12:43:35.357Z,60.80
2023-05-14T12:46:02.263Z,61.80
2023-05-14T12:48:29.125Z,60.10
2023-05-14T12:50:56.067Z,61.20
2023-05-14T12:53:22.884Z,61.90
2023-05-14T12:55:49.738Z,62.20
2023-05-14T12:58:16.562Z,61.30
2023-05-14T13:00:43.429Z,60.70
2023-05-14T13:03:10.293Z,60.80
2023-05-14T13:05:37.782Z,60.10
2023-05-14T13:08:04.681Z,59.10
2023-05-14T13:10:31.566Z,60.10
2023-05-14T13:12:58.436Z,58.70
2023-05-14T13:15:25.483Z,60.30
2023-05-14T13:17:52.712Z,60.60
2023-05-14T13:20:19.670Z,59.10
2023-05-14T13:22:46.582Z,60.00
2023-05-14T13:25:13.486Z,59.60
2023-05-14T13:27:40.306Z,59.90
2023-05-14T13:30:07.774Z,59.60
2023-05-14T13:32:34.742Z,60.40
2023-05-14T13:35:01.660Z,59.40
2023-05-14T13:37:28.672Z,59.60
2023-05-14T13:39:55.537Z,59.70
2023-05-14T13:42:23.608Z,60.40
2023-05-14T13:44:50.882Z,58.80
2023-05-14T13:47:17.694Z,60.70
2023-05-14T13:49:44.584Z,60.70
2023-05-14T13:52:11.501Z,60.30
2023-05-14T13:54:38.310Z,60.20
2023-05-14T13:57:05.599Z,60.20
2023-05-14T13:59:32.528Z,59.50
2023-05-14T14:01:59.469Z,61.90
2023-05-14T14:04:29.074Z,61.10
2023-05-14T14:06:56.275Z,61.30
2023-05-14T14:09:23.291Z,59.60
2023-05-14T14:11:50.708Z,60.30
2023-05-14T14:14:18.200Z,61.00
2023-05-14T14:16:45.093Z,61.40
2023-05-14T14:19:12.065Z,60.00
2023-05-14T14:21:42.699Z,60.10
2023-05-14T14:24:09.602Z,61.00
2023-05-14T14:26:36.476Z,61.90
2023-05-14T14:29:03.628Z,59.80
2023-05-14T14:31:30.751Z,59.90
2023-05-14T14:33:57.637Z,59.90
2023-05-14T14:36:24.536Z,59.10
2023-05-14T14:38:51.510Z,60.20
2023-05-14T14:41:18.373Z,59.40
2023-05-14T14:43:45.443Z,59.90
2023-05-14T14:46:12.428Z,62.00
2023-05-14T14:48:39.742Z,60.00
2023-05-14T14:51:07.959Z,59.60
2023-05-14T14:53:35.861Z,59.40
2023-05-14T14:56:03.297Z,60.90
2023-05-14T14:58:31.381Z,59.60
2023-05-14T15:00:58.733Z,59.60
2023-05-14T15:03:26.313Z,59.00
2023-05-14T15:05:53.877Z,59.30
2023-05-14T15:08:24.651Z,59.20
2023-05-14T15:10:51.603Z,59.20
2023-05-14T15:13:19.092Z,58.50
2023-05-14T15:15:45.893Z,58.90
2023-05-14T15:18:12.928Z,59.20
2023-05-14T15:20:40.115Z,57.70
2023-05-14T15:23:07.115Z,58.80
2023-05-14T15:25:33.944Z,58.70
2023-05-14T15:28:00.874Z,58.50
2023-05-14T15:30:27.839Z,58.90
2023-05-14T15:32:55.778Z,58.20
2023-05-14T15:35:23.100Z,58.70
2023-05-14T15:37:50.294Z,58.70
2023-05-14T15:40:18.909Z,58.70
2023-05-14T15:42:46.884Z,59.00
2023-05-14T15:45:14.195Z,58.40
2023-05-14T15:47:41.789Z,57.80
2023-05-14T15:50:09.161Z,58.20
2023-05-14T15:52:36.530Z,58.30
2023-05-14T15:55:05.668Z,58.30
2023-05-14T15:57:32.654Z,57.90
2023-05-14T15:59:59.534Z,57.90
2023-05-14T16:02:30.298Z,57.60
2023-05-14T16:04:57.377Z,57.30
2023-05-14T16:07:24.289Z,56.40
2023-05-14T16:09:51.768Z,56.90
2023-05-14T16:12:18.766Z,57.10
2023-05-14T16:14:45.638Z,57.00
2023-05-14T16:17:12.657Z,56.40
2023-05-14T16:19:39.980Z,55.70
2023-05-14T16:22:06.803Z,56.20
2023-05-14T16:24:33.646Z,56.40
2023-05-14T16:27:00.813Z,56.80
2023-05-14T16:29:27.897Z,56.80
2023-05-14T16:31:54.928Z,56.10
2023-05-14T16:34:21.830Z,56.20
2023-05-14T16:36:48.756Z,56.40
2023-05-14T16:39:16.574Z,56.50
2023-05-14T16:41:43.385Z,56.30
2023-05-14T16:44:10.203Z,56.40
2023-05-14T16:46:37.102Z,57.20
2023-05-14T16:49:03.919Z,57.60
2023-05-14T16:51:30.808Z,57.30
2023-05-14T16:53:57.587Z,57.30
2023-05-14T16:56:24.484Z,57.60
2023-05-14T16:58:51.382Z,56.40
2023-05-14T17:01:18.358Z,57.00
2023-05-14T17:03:45.783Z,57.70
2023-05-14T17:06:12.702Z,57.60
2023-05-14T17:08:39.711Z,58.30
2023-05-14T17:11:06.695Z,58.20
2023-05-14T17:13:34.082Z,58.90
2023-05-14T17:16:01.241Z,59.10
2023-05-14T17:18:28.558Z,59.80
2023-05-14T17:20:55.561Z,59.10
2023-05-14T17:23:22.468Z,59.90
2023-05-14T17:25:49.521Z,60.70
2023-05-14T17:28:16.473Z,61.00
2023-05-14T17:30:43.813Z,61.10
2023-05-14T17:33:11.560Z,60.80
2023-05-14T17:35:38.588Z,60.60
2023-05-14T17:38:05.621Z,60.20
2023-05-14T17:40:33.457Z,60.10
2023-05-14T17:43:00.511Z,61.60
2023-05-14T17:45:28.596Z,62.80
2023-05-14T17:47:57.567Z,62.80
2023-05-14T17:50:24.448Z,63.70
2023-05-14T17:52:51.297Z,63.90
2023-05-14T17:55:19.177Z,64.60
2023-05-14T17:57:46.540Z,65.30
2023-05-14T18:00:13.968Z,65.30
2023-05-14T18:02:41.777Z,66.10
2023-05-14T18:05:09.089Z,66.00
2023-05-14T18:07:36.679Z,66.00
2023-05-14T18:10:04.416Z,66.50
2023-05-14T18:12:31.239Z,67.00
2023-05-14T18:14:58.070Z,66.20
2023-05-14T18:17:25.015Z,66.70
2023-05-14T18:19:51.907Z,66.60
2023-05-14T18:22:20.378Z,67.30
2023-05-14T18:24:47.357Z,68.00
2023-05-14T18:27:14.215Z,68.40
2023-05-14T18:29:42.682Z,69.30
2023-05-14T18:32:09.543Z,70.00
2023-05-14T18:34:36.493Z,70.20
2023-05-14T18:37:03.293Z,70.80
2023-05-14T18:39:30.123Z,71.20
2023-05-14T18:41:57.326Z,71.70
2023-05-14T18:44:24.210Z,72.10
2023-05-14T18:46:51.300Z,72.00
2023-05-14T18:49:18.118Z,72.50
2023-05-14T18:51:45.024Z,73.00
2023-05-14T18:54:11.827Z,73.10
2023-05-14T18:56:41.243Z,73.70
2023-05-14T18:59:09.262Z,73.50
2023-05-14T19:01:36.459Z,74.40
2023-05-14T19:04:05.455Z,74.60
2023-05-14T19:06:32.796Z,74.30
2023-05-14T19:08:59.709Z,74.90
2023-05-14T19:11:26.540Z,75.00
2023-05-14T19:13:53.414Z,75.20
2023-05-14T19:16:51.964Z,76.20
2023-05-14T19:19:19.037Z,76.50
2023-05-14T19:21:46.358Z,76.80
2023-05-14T19:24:13.237Z,76.90
2023-05-14T19:26:40.063Z,77.70
2023-05-14T19:29:06.944Z,77.50
2023-05-14T19:31:33.791Z,78.00
2023-05-14T19:34:00.670Z,78.60
2023-05-14T19:36:28.352Z,78.90
2023-05-14T19:38:55.268Z,79.80
2023-05-14T19:41:23.026Z,80.30
2023-05-14T19:43:49.860Z,80.90
2023-05-14T19:46:17.088Z,81.20
2023-05-14T19:48:43.991Z,82.00
2023-05-14T19:51:11.185Z,82.10
2023-05-14T19:53:38.048Z,82.50
2023-05-14T19:56:05.249Z,83.20
2023-05-14T19:58:32.133Z,83.50
2023-05-14T20:01:00.744Z,83.90
2023-05-14T20:03:27.811Z,84.50
2023-05-14T20:05:55.859Z,85.10
2023-05-14T20:08:22.677Z,85.30
2023-05-14T20:10:49.565Z,86.30
2023-05-14T20:13:16.452Z,86.30
2023-05-14T20:15:43.391Z,86.40
2023-05-14T20:18:10.281Z,87.30
2023-05-14T20:20:37.436Z,87.50
2023-05-14T20:23:04.239Z,87.30
2023-05-14T20:25:32.779Z,87.80
2023-05-14T20:28:02.415Z,87.80
2023-05-14T20:30:29.358Z,88.30
2023-05-14T20:32:56.510Z,88.70
2023-05-14T20:35:23.569Z,89.00
2023-05-14T20:37:50.600Z,89.20
2023-05-14T20:40:17.721Z,89.50
2023-05-14T20:42:44.652Z,89.80
2023-05-14T20:45:11.663Z,89.70
2023-05-14T20:50:27.811Z,90.10
2023-05-14T20:52:55.636Z,90.40
2023-05-14T20:55:23.050Z,90.50
2023-05-14T20:57:50.572Z,90.70
2023-05-14T21:00:17.958Z,90.70
2023-05-14T21:02:44.925Z,90.90
2023-05-14T21:05:11.869Z,91.20
2023-05-14T21:07:39.383Z,91.20
2023-05-14T21:10:08.563Z,91.40
2023-05-14T21:12:35.490Z,91.50
2023-05-14T21:15:02.672Z,91.70
2023-05-14T21:17:29.892Z,91.90
2023-05-14T21:19:56.674Z,92.00
2023-05-14T21:22:23.601Z,92.20
2023-05-14T21:24:51.344Z,92.40
2023-05-14T21:27:18.193Z,92.60
2023-05-14T21:29:46.416Z,92.70
2023-05-14T21:32:13.337Z,92.70
2023-05-14T21:34:40.298Z,92.80
2023-05-14T21:37:07.135Z,93.00
2023-05-14T21:39:34.049Z,93.10
2023-05-14T21:42:00.869Z,93.30
2023-05-14T21:44:27.688Z,93.40
2023-05-14T21:46:54.780Z,93.70
2023-05-14T21:49:21.636Z,93.90
2023-05-14T21:51:52.940Z,93.90
2023-05-14T21:54:20.898Z,94.00
2023-05-14T21:56:48.074Z,94.00
2023-05-14T21:59:14.992Z,94.20
2023-05-14T22:02:04.810Z,94.60
2023-05-14T22:04:28.721Z,94.70
2023-05-14T22:06:56.022Z,94.80
2023-05-14T22:09:22.832Z,94.90
2023-05-14T22:11:49.645Z,95.10
2023-05-14T22:14:16.494Z,95.10
2023-05-14T22:16:43.512Z,95.10
2023-05-14T22:19:10.419Z,95.20
2023-05-14T22:21:37.247Z,95.50
2023-05-14T22:24:04.227Z,95.50
2023-05-14T22:26:31.008Z,95.70
2023-05-14T22:28:57.967Z,95.70
2023-05-14T22:31:24.857Z,95.70
2023-05-14T22:33:51.687Z,95.70
2023-05-14T22:36:18.489Z,95.80
2023-05-14T22:38:45.304Z,95.80
2023-05-14T22:41:12.722Z,95.70
2023-05-14T22:43:39.681Z,95.90
2023-05-14T22:46:06.772Z,96.00
2023-05-14T22:48:33.642Z,96.00
2023-05-14T22:51:00.484Z,96.10
2023-05-14T22:53:27.385Z,96.20
2023-05-14T22:55:54.289Z,96.10
2023-05-14T22:58:21.084Z,96.20
2023-05-14T23:00:47.968Z,96.20
2023-05-14T23:03:14.759Z,96.60
2023-05-14T23:05:41.587Z,96.40
2023-05-14T23:08:08.399Z,96.50
2023-05-14T23:10:38.181Z,96.80
2023-05-14T23:13:05.103Z,96.90
2023-05-14T23:15:32.716Z,97.00
2023-05-14T23:17:59.987Z,97.30
2023-05-14T23:20:26.825Z,97.10
2023-05-14T23:22:54.128Z,97.10
2023-05-14T23:25:21.038Z,97.10
2023-05-14T23:27:48.237Z,97.20
2023-05-14T23:30:15.162Z,97.40
2023-05-14T23:32:42.019Z,97.40
2023-05-14T23:35:09.432Z,97.40
2023-05-14T23:37:41.610Z,97.30
2023-05-14T23:40:09.581Z,97.60
2023-05-14T23:42:36.417Z,97.40
2023-05-14T23:45:03.608Z,97.40
2023-05-14T23:47:30.434Z,97.50
2023-05-14T23:49:57.265Z,97.30
2023-05-14T23:52:24.060Z,97.10
2023-05-14T23:54:50.860Z,97.10
2023-05-14T23:57:17.717Z,96.70
2023-05-14T23:59:44.525Z,96.80
